sensor_id;sensor_type;location;lat;lon;timestamp;pressure;altitude;pressure_sealevel;temperature;humidity
46756;BME280;32506;52.826;-1.192;2023-04-20T00:02:00;102046.44;;;7.31;41.21
46756;BME280;32506;52.826;-1.192;2023-04-20T00:04:29;102047.75;;;7.27;40.90
46756;BME280;32506;52.826;-1.192;2023-04-20T00:06:55;102040.25;;;7.22;40.85
46756;BME280;32506;52.826;-1.192;2023-04-20T00:09:25;102044.22;;;7.18;41.32
46756;BME280;32506;52.826;-1.192;2023-04-20T00:11:51;102033.19;;;7.13;41.66
46756;BME280;32506;52.826;-1.192;2023-04-20T00:14:16;102042.47;;;7.09;41.48
46756;BME280;32506;52.826;-1.192;2023-04-20T00:16:42;102039.13;;;7.07;41.98
46756;BME280;32506;52.826;-1.192;2023-04-20T00:19:07;102035.09;;;7.03;41.50
46756;BME280;32506;52.826;-1.192;2023-04-20T00:21:33;102033.75;;;6.99;41.92
46756;BME280;32506;52.826;-1.192;2023-04-20T00:23:59;102019.09;;;6.95;42.21
46756;BME280;32506;52.826;-1.192;2023-04-20T00:26:24;102024.72;;;6.92;41.89
46756;BME280;32506;52.826;-1.192;2023-04-20T00:28:50;102026.00;;;6.87;41.74
46756;BME280;32506;52.826;-1.192;2023-04-20T00:31:17;102028.13;;;6.84;42.02
46756;BME280;32506;52.826;-1.192;2023-04-20T00:33:42;102016.97;;;6.80;42.39
46756;BME280;32506;52.826;-1.192;2023-04-20T00:36:08;102018.97;;;6.78;42.00
46756;BME280;32506;52.826;-1.192;2023-04-20T00:38:33;102022.06;;;6.74;42.29
46756;BME280;32506;52.826;-1.192;2023-04-20T00:40:59;102023.19;;;6.71;42.52
46756;BME280;32506;52.826;-1.192;2023-04-20T00:43:25;102023.50;;;6.68;42.61
46756;BME280;32506;52.826;-1.192;2023-04-20T00:45:50;102025.47;;;6.66;42.82
46756;BME280;32506;52.826;-1.192;2023-04-20T00:48:17;102020.63;;;6.61;42.51
46756;BME280;32506;52.826;-1.192;2023-04-20T00:50:43;102017.41;;;6.58;42.88
46756;BME280;32506;52.826;-1.192;2023-04-20T00:53:09;102012.41;;;6.54;43.27
46756;BME280;32506;52.826;-1.192;2023-04-20T00:55:36;102007.25;;;6.53;43.44
46756;BME280;32506;52.826;-1.192;2023-04-20T00:58:02;102003.09;;;6.50;43.23
46756;BME280;32506;52.826;-1.192;2023-04-20T01:00:28;102009.53;;;6.48;43.15
46756;BME280;32506;52.826;-1.192;2023-04-20T01:02:53;102003.66;;;6.44;43.06
46756;BME280;32506;52.826;-1.192;2023-04-20T01:05:19;101999.50;;;6.42;43.38
46756;BME280;32506;52.826;-1.192;2023-04-20T01:07:46;102001.47;;;6.40;43.49
46756;BME280;32506;52.826;-1.192;2023-04-20T01:10:11;101982.19;;;6.37;43.93
46756;BME280;32506;52.826;-1.192;2023-04-20T01:12:37;101993.13;;;6.34;44.07
46756;BME280;32506;52.826;-1.192;2023-04-20T01:15:03;101982.66;;;6.33;44.06
46756;BME280;32506;52.826;-1.192;2023-04-20T01:17:30;101980.28;;;6.30;44.17
46756;BME280;32506;52.826;-1.192;2023-04-20T01:19:57;101987.41;;;6.29;44.67
46756;BME280;32506;52.826;-1.192;2023-04-20T01:22:24;101986.88;;;6.26;44.73
46756;BME280;32506;52.826;-1.192;2023-04-20T01:24:50;101974.59;;;6.25;44.92
46756;BME280;32506;52.826;-1.192;2023-04-20T01:27:16;101981.06;;;6.22;44.78
46756;BME280;32506;52.826;-1.192;2023-04-20T01:29:42;101976.72;;;6.21;44.68
46756;BME280;32506;52.826;-1.192;2023-04-20T01:32:08;101984.13;;;6.17;44.38
46756;BME280;32506;52.826;-1.192;2023-04-20T01:34:34;101978.97;;;6.16;44.72
46756;BME280;32506;52.826;-1.192;2023-04-20T01:37:00;101973.00;;;6.14;45.26
46756;BME280;32506;52.826;-1.192;2023-04-20T01:39:26;101989.91;;;6.13;44.60
46756;BME280;32506;52.826;-1.192;2023-04-20T01:41:52;101986.72;;;6.09;44.73
46756;BME280;32506;52.826;-1.192;2023-04-20T01:44:17;101981.56;;;6.08;44.94
46756;BME280;32506;52.826;-1.192;2023-04-20T01:46:43;101980.84;;;6.05;44.61
46756;BME280;32506;52.826;-1.192;2023-04-20T01:49:08;101980.19;;;6.03;45.11
46756;BME280;32506;52.826;-1.192;2023-04-20T01:51:34;101977.69;;;6.02;44.84
46756;BME280;32506;52.826;-1.192;2023-04-20T01:54:00;101976.81;;;6.01;44.91
46756;BME280;32506;52.826;-1.192;2023-04-20T01:56:26;101979.78;;;5.98;44.71
46756;BME280;32506;52.826;-1.192;2023-04-20T01:58:51;101976.44;;;5.96;44.99
46756;BME280;32506;52.826;-1.192;2023-04-20T02:01:17;101970.41;;;5.94;45.30
46756;BME280;32506;52.826;-1.192;2023-04-20T02:03:42;101972.38;;;5.92;45.02
46756;BME280;32506;52.826;-1.192;2023-04-20T02:06:08;101972.53;;;5.91;45.28
46756;BME280;32506;52.826;-1.192;2023-04-20T02:08:33;101964.88;;;5.87;45.15
46756;BME280;32506;52.826;-1.192;2023-04-20T02:10:59;101973.81;;;5.86;45.49
46756;BME280;32506;52.826;-1.192;2023-04-20T02:13:25;101973.13;;;5.84;45.33
46756;BME280;32506;52.826;-1.192;2023-04-20T02:15:50;101970.63;;;5.83;45.11
46756;BME280;32506;52.826;-1.192;2023-04-20T02:18:16;101971.59;;;5.82;45.70
46756;BME280;32506;52.826;-1.192;2023-04-20T02:20:43;101971.88;;;5.79;45.37
46756;BME280;32506;52.826;-1.192;2023-04-20T02:23:08;101969.38;;;5.77;45.54
46756;BME280;32506;52.826;-1.192;2023-04-20T02:25:34;101965.19;;;5.75;45.53
46756;BME280;32506;52.826;-1.192;2023-04-20T02:27:59;101959.22;;;5.72;45.94
46756;BME280;32506;52.826;-1.192;2023-04-20T02:30:25;101960.19;;;5.71;45.65
46756;BME280;32506;52.826;-1.192;2023-04-20T02:32:51;101957.69;;;5.70;45.70
46756;BME280;32506;52.826;-1.192;2023-04-20T02:35:17;101951.69;;;5.68;45.84
46756;BME280;32506;52.826;-1.192;2023-04-20T02:37:43;101957.13;;;5.66;46.13
46756;BME280;32506;52.826;-1.192;2023-04-20T02:40:09;101951.00;;;5.66;46.47
46756;BME280;32506;52.826;-1.192;2023-04-20T02:42:34;101955.63;;;5.64;46.58
46756;BME280;32506;52.826;-1.192;2023-04-20T02:45:00;101955.75;;;5.62;46.25
46756;BME280;32506;52.826;-1.192;2023-04-20T02:47:25;101950.59;;;5.61;46.31
46756;BME280;32506;52.826;-1.192;2023-04-20T02:49:51;101950.75;;;5.59;46.40
46756;BME280;32506;52.826;-1.192;2023-04-20T02:52:16;101948.25;;;5.58;46.39
46756;BME280;32506;52.826;-1.192;2023-04-20T02:54:42;101962.50;;;5.57;46.22
46756;BME280;32506;52.826;-1.192;2023-04-20T02:57:07;101952.03;;;5.55;46.52
46756;BME280;32506;52.826;-1.192;2023-04-20T02:59:35;101949.69;;;5.52;46.48
46756;BME280;32506;52.826;-1.192;2023-04-20T03:02:00;101948.00;;;5.51;46.44
46756;BME280;32506;52.826;-1.192;2023-04-20T03:04:26;101952.47;;;5.50;46.33
46756;BME280;32506;52.826;-1.192;2023-04-20T03:06:51;101947.31;;;5.49;46.10
46756;BME280;32506;52.826;-1.192;2023-04-20T03:09:17;101958.06;;;5.47;45.99
46756;BME280;32506;52.826;-1.192;2023-04-20T03:11:44;101957.38;;;5.45;46.69
46756;BME280;32506;52.826;-1.192;2023-04-20T03:14:09;101956.69;;;5.43;46.42
46756;BME280;32506;52.826;-1.192;2023-04-20T03:16:35;101960.16;;;5.44;46.37
46756;BME280;32506;52.826;-1.192;2023-04-20T03:19:01;101953.47;;;5.40;46.02
46756;BME280;32506;52.826;-1.192;2023-04-20T03:21:27;101950.97;;;5.38;46.11
46756;BME280;32506;52.826;-1.192;2023-04-20T03:23:52;101951.13;;;5.36;46.06
46756;BME280;32506;52.826;-1.192;2023-04-20T03:26:18;101953.94;;;5.35;45.85
46756;BME280;32506;52.826;-1.192;2023-04-20T03:28:44;101953.22;;;5.33;45.84
46756;BME280;32506;52.826;-1.192;2023-04-20T03:31:10;101950.72;;;5.31;46.00
46756;BME280;32506;52.826;-1.192;2023-04-20T03:33:35;101950.03;;;5.29;45.52
46756;BME280;32506;52.826;-1.192;2023-04-20T03:36:01;101946.69;;;5.27;45.49
46756;BME280;32506;52.826;-1.192;2023-04-20T03:38:26;101953.81;;;5.27;45.21
46756;BME280;32506;52.826;-1.192;2023-04-20T03:40:52;101960.38;;;5.23;45.09
46756;BME280;32506;52.826;-1.192;2023-04-20T03:43:17;101961.34;;;5.21;45.31
46756;BME280;32506;52.826;-1.192;2023-04-20T03:45:43;101965.94;;;5.19;45.43
46756;BME280;32506;52.826;-1.192;2023-04-20T03:48:08;101954.66;;;5.17;45.23
46756;BME280;32506;52.826;-1.192;2023-04-20T03:50:34;101961.91;;;5.15;45.17
46756;BME280;32506;52.826;-1.192;2023-04-20T03:52:59;101963.88;;;5.13;45.26
46756;BME280;32506;52.826;-1.192;2023-04-20T03:55:25;101965.84;;;5.11;45.03
46756;BME280;32506;52.826;-1.192;2023-04-20T03:57:51;101970.47;;;5.09;45.16
46756;BME280;32506;52.826;-1.192;2023-04-20T04:00:16;101965.31;;;5.08;45.21
46756;BME280;32506;52.826;-1.192;2023-04-20T04:02:42;101968.94;;;5.07;45.09
46756;BME280;32506;52.826;-1.192;2023-04-20T04:05:07;101959.44;;;5.04;45.30
46756;BME280;32506;52.826;-1.192;2023-04-20T04:07:33;101963.06;;;5.03;45.21
46756;BME280;32506;52.826;-1.192;2023-04-20T04:09:58;101961.38;;;5.02;45.45
46756;BME280;32506;52.826;-1.192;2023-04-20T04:12:23;101959.84;;;4.99;45.33
46756;BME280;32506;52.826;-1.192;2023-04-20T04:14:49;101960.00;;;4.98;45.19
46756;BME280;32506;52.826;-1.192;2023-04-20T04:17:14;101962.78;;;4.96;45.56
46756;BME280;32506;52.826;-1.192;2023-04-20T04:19:40;101960.28;;;4.95;45.01
46756;BME280;32506;52.826;-1.192;2023-04-20T04:22:05;101959.47;;;4.94;45.37
46756;BME280;32506;52.826;-1.192;2023-04-20T04:24:31;101965.03;;;4.91;45.44
46756;BME280;32506;52.826;-1.192;2023-04-20T04:26:58;101965.16;;;4.90;45.81
46756;BME280;32506;52.826;-1.192;2023-04-20T04:29:23;101963.50;;;4.88;45.72
46756;BME280;32506;52.826;-1.192;2023-04-20T04:31:51;101961.97;;;4.86;45.46
46756;BME280;32506;52.826;-1.192;2023-04-20T04:34:16;101974.38;;;4.85;45.29
46756;BME280;32506;52.826;-1.192;2023-04-20T04:36:45;101967.56;;;4.83;45.49
46756;BME280;32506;52.826;-1.192;2023-04-20T04:39:11;101965.88;;;4.82;45.59
46756;BME280;32506;52.826;-1.192;2023-04-20T04:41:37;101972.16;;;4.81;45.89
46756;BME280;32506;52.826;-1.192;2023-04-20T04:44:02;101971.47;;;4.79;45.50
46756;BME280;32506;52.826;-1.192;2023-04-20T04:46:30;101965.34;;;4.78;45.57
46756;BME280;32506;52.826;-1.192;2023-04-20T04:48:56;101966.44;;;4.76;45.53
46756;BME280;32506;52.826;-1.192;2023-04-20T04:51:25;101969.09;;;4.76;45.78
46756;BME280;32506;52.826;-1.192;2023-04-20T04:53:50;101970.06;;;4.75;46.13
46756;BME280;32506;52.826;-1.192;2023-04-20T04:56:16;101971.91;;;4.74;45.93
46756;BME280;32506;52.826;-1.192;2023-04-20T04:58:43;101971.19;;;4.72;45.89
46756;BME280;32506;52.826;-1.192;2023-04-20T05:01:10;101970.34;;;4.72;46.03
46756;BME280;32506;52.826;-1.192;2023-04-20T05:03:35;101969.66;;;4.69;45.58
46756;BME280;32506;52.826;-1.192;2023-04-20T05:06:01;101975.91;;;4.68;45.85
46756;BME280;32506;52.826;-1.192;2023-04-20T05:08:27;101976.06;;;4.67;46.20
46756;BME280;32506;52.826;-1.192;2023-04-20T05:10:52;101989.31;;;4.67;46.07
46756;BME280;32506;52.826;-1.192;2023-04-20T05:13:17;101988.47;;;4.66;46.03
46756;BME280;32506;52.826;-1.192;2023-04-20T05:15:43;101984.97;;;4.66;45.91
46756;BME280;32506;52.826;-1.192;2023-04-20T05:18:08;101991.28;;;4.65;45.77
46756;BME280;32506;52.826;-1.192;2023-04-20T05:20:34;101986.13;;;4.63;45.79
46756;BME280;32506;52.826;-1.192;2023-04-20T05:22:59;101992.38;;;4.62;45.68
46756;BME280;32506;52.826;-1.192;2023-04-20T05:25:25;101982.91;;;4.60;45.61
46756;BME280;32506;52.826;-1.192;2023-04-20T05:27:50;101985.53;;;4.60;45.52
46756;BME280;32506;52.826;-1.192;2023-04-20T05:30:16;101987.34;;;4.59;45.47
46756;BME280;32506;52.826;-1.192;2023-04-20T05:32:42;101983.19;;;4.57;45.60
46756;BME280;32506;52.826;-1.192;2023-04-20T05:35:07;101994.59;;;4.57;45.55
46756;BME280;32506;52.826;-1.192;2023-04-20T05:37:33;102000.88;;;4.56;45.76
46756;BME280;32506;52.826;-1.192;2023-04-20T05:39:59;101997.41;;;4.56;45.77
46756;BME280;32506;52.826;-1.192;2023-04-20T05:42:24;102006.03;;;4.58;45.89
46756;BME280;32506;52.826;-1.192;2023-04-20T05:44:50;102001.72;;;4.57;45.84
46756;BME280;32506;52.826;-1.192;2023-04-20T05:47:15;102000.03;;;4.56;46.10
46756;BME280;32506;52.826;-1.192;2023-04-20T05:49:41;102007.03;;;4.57;45.88
46756;BME280;32506;52.826;-1.192;2023-04-20T05:52:06;102010.34;;;4.59;46.31
46756;BME280;32506;52.826;-1.192;2023-04-20T05:54:32;102013.00;;;4.59;46.47
46756;BME280;32506;52.826;-1.192;2023-04-20T05:56:57;102001.44;;;4.60;46.48
46756;BME280;32506;52.826;-1.192;2023-04-20T05:59:24;102000.47;;;4.61;46.32
46756;BME280;32506;52.826;-1.192;2023-04-20T06:01:50;102009.09;;;4.63;46.62
46756;BME280;32506;52.826;-1.192;2023-04-20T06:04:15;102009.94;;;4.63;47.05
46756;BME280;32506;52.826;-1.192;2023-04-20T06:06:41;102010.63;;;4.65;46.91
46756;BME280;32506;52.826;-1.192;2023-04-20T06:09:06;102010.50;;;4.67;46.93
46756;BME280;32506;52.826;-1.192;2023-04-20T06:11:32;102014.69;;;4.69;47.01
46756;BME280;32506;52.826;-1.192;2023-04-20T06:13:57;102012.88;;;4.70;47.08
46756;BME280;32506;52.826;-1.192;2023-04-20T06:16:23;102012.75;;;4.72;46.92
46756;BME280;32506;52.826;-1.192;2023-04-20T06:18:48;102015.94;;;4.75;46.89
46756;BME280;32506;52.826;-1.192;2023-04-20T06:21:14;102017.59;;;4.76;46.84
46756;BME280;32506;52.826;-1.192;2023-04-20T06:23:41;102018.31;;;4.78;46.87
46756;BME280;32506;52.826;-1.192;2023-04-20T06:26:09;102021.66;;;4.80;46.76
46756;BME280;32506;52.826;-1.192;2023-04-20T06:28:35;102016.19;;;4.82;46.78
46756;BME280;32506;52.826;-1.192;2023-04-20T06:31:01;102019.41;;;4.85;46.86
46756;BME280;32506;52.826;-1.192;2023-04-20T06:33:27;102021.78;;;4.88;46.95
46756;BME280;32506;52.826;-1.192;2023-04-20T06:35:52;102017.19;;;4.91;46.71
46756;BME280;32506;52.826;-1.192;2023-04-20T06:38:19;102016.22;;;4.92;46.81
46756;BME280;32506;52.826;-1.192;2023-04-20T06:40:45;102016.91;;;4.94;46.77
46756;BME280;32506;52.826;-1.192;2023-04-20T06:43:11;102014.81;;;4.97;46.67
46756;BME280;32506;52.826;-1.192;2023-04-20T06:45:36;102019.81;;;5.00;46.86
46756;BME280;32506;52.826;-1.192;2023-04-20T06:48:02;102004.63;;;5.02;46.83
46756;BME280;32506;52.826;-1.192;2023-04-20T06:50:27;102009.66;;;5.06;46.85
46756;BME280;32506;52.826;-1.192;2023-04-20T06:52:53;102003.91;;;5.10;46.80
46756;BME280;32506;52.826;-1.192;2023-04-20T06:55:18;101998.50;;;5.12;46.90
46756;BME280;32506;52.826;-1.192;2023-04-20T06:57:43;101996.53;;;5.14;46.99
46756;BME280;32506;52.826;-1.192;2023-04-20T07:00:10;102001.41;;;5.18;46.82
46756;BME280;32506;52.826;-1.192;2023-04-20T07:05:09;101997.19;;;5.26;46.96
46756;BME280;32506;52.826;-1.192;2023-04-20T07:07:35;101996.91;;;5.29;47.23
46756;BME280;32506;52.826;-1.192;2023-04-20T07:10:00;101991.34;;;5.32;47.13
46756;BME280;32506;52.826;-1.192;2023-04-20T07:12:28;101994.38;;;5.37;47.99
46756;BME280;32506;52.826;-1.192;2023-04-20T07:14:54;101995.91;;;5.40;48.45
46756;BME280;32506;52.826;-1.192;2023-04-20T07:17:19;101998.97;;;5.45;48.20
46756;BME280;32506;52.826;-1.192;2023-04-20T07:19:45;101992.53;;;5.47;48.18
46756;BME280;32506;52.826;-1.192;2023-04-20T07:22:10;101991.97;;;5.53;48.64
46756;BME280;32506;52.826;-1.192;2023-04-20T07:24:36;101996.69;;;5.60;49.28
46756;BME280;32506;52.826;-1.192;2023-04-20T07:27:01;101989.97;;;5.65;49.32
46756;BME280;32506;52.826;-1.192;2023-04-20T07:29:27;101990.50;;;5.69;49.52
46756;BME280;32506;52.826;-1.192;2023-04-20T07:31:52;101987.28;;;5.75;49.46
46756;BME280;32506;52.826;-1.192;2023-04-20T07:34:18;101987.53;;;5.82;50.54
46756;BME280;32506;52.826;-1.192;2023-04-20T07:36:43;101991.41;;;5.87;51.26
46756;BME280;32506;52.826;-1.192;2023-04-20T07:39:11;101984.50;;;5.95;51.66
46756;BME280;32506;52.826;-1.192;2023-04-20T07:41:37;101972.38;;;6.02;52.37
46756;BME280;32506;52.826;-1.192;2023-04-20T07:44:02;101982.25;;;6.10;52.42
46756;BME280;32506;52.826;-1.192;2023-04-20T07:46:28;101979.69;;;6.18;52.58
46756;BME280;32506;52.826;-1.192;2023-04-20T07:48:53;101982.41;;;6.26;53.45
46756;BME280;32506;52.826;-1.192;2023-04-20T07:51:19;101978.00;;;6.35;53.66
46756;BME280;32506;52.826;-1.192;2023-04-20T07:53:45;101981.59;;;6.44;53.86
46756;BME280;32506;52.826;-1.192;2023-04-20T07:56:10;101977.06;;;6.54;54.60
46756;BME280;32506;52.826;-1.192;2023-04-20T07:58:36;101973.47;;;6.63;54.97
46756;BME280;32506;52.826;-1.192;2023-04-20T08:01:03;101980.38;;;6.74;54.91
46756;BME280;32506;52.826;-1.192;2023-04-20T08:03:28;101974.97;;;6.84;54.90
46756;BME280;32506;52.826;-1.192;2023-04-20T08:05:54;101971.09;;;6.96;55.63
46756;BME280;32506;52.826;-1.192;2023-04-20T08:08:20;101966.34;;;7.08;55.76
46756;BME280;32506;52.826;-1.192;2023-04-20T08:10:45;101966.63;;;7.23;56.29
46756;BME280;32506;52.826;-1.192;2023-04-20T08:13:10;101969.84;;;7.35;56.28
46756;BME280;32506;52.826;-1.192;2023-04-20T08:15:36;101962.78;;;7.52;57.00
46756;BME280;32506;52.826;-1.192;2023-04-20T08:18:01;101964.03;;;7.66;56.85
46756;BME280;32506;52.826;-1.192;2023-04-20T08:20:27;101960.59;;;7.82;57.43
46756;BME280;32506;52.826;-1.192;2023-04-20T08:22:52;101962.50;;;7.98;57.43
46756;BME280;32506;52.826;-1.192;2023-04-20T08:25:18;101964.03;;;8.17;57.82
46756;BME280;32506;52.826;-1.192;2023-04-20T08:27:43;101962.91;;;8.36;57.08
46756;BME280;32506;52.826;-1.192;2023-04-20T08:30:09;101952.78;;;8.56;57.00
46756;BME280;32506;52.826;-1.192;2023-04-20T08:32:35;101958.63;;;8.76;57.51
46756;BME280;32506;52.826;-1.192;2023-04-20T08:35:00;101959.94;;;8.97;57.19
46756;BME280;32506;52.826;-1.192;2023-04-20T08:37:26;101943.75;;;9.15;57.52
46756;BME280;32506;52.826;-1.192;2023-04-20T08:39:52;101947.69;;;9.35;57.52
46756;BME280;32506;52.826;-1.192;2023-04-20T08:42:17;101949.13;;;9.54;57.66
46756;BME280;32506;52.826;-1.192;2023-04-20T08:44:43;101952.06;;;9.76;57.47
46756;BME280;32506;52.826;-1.192;2023-04-20T08:47:09;101944.28;;;9.98;57.65
46756;BME280;32506;52.826;-1.192;2023-04-20T08:49:38;101940.97;;;10.19;57.58
46756;BME280;32506;52.826;-1.192;2023-04-20T08:52:04;101939.56;;;10.39;57.32
46756;BME280;32506;52.826;-1.192;2023-04-20T08:54:30;101939.72;;;10.61;57.36
46756;BME280;32506;52.826;-1.192;2023-04-20T08:56:56;101935.34;;;10.83;57.30
46756;BME280;32506;52.826;-1.192;2023-04-20T08:59:22;101932.97;;;11.03;57.11
46756;BME280;32506;52.826;-1.192;2023-04-20T09:01:48;101933.53;;;11.29;57.17
46756;BME280;32506;52.826;-1.192;2023-04-20T09:04:24;101930.75;;;11.52;56.72
46756;BME280;32506;52.826;-1.192;2023-04-20T09:06:53;101922.97;;;11.72;56.88
46756;BME280;32506;52.826;-1.192;2023-04-20T09:09:22;101929.06;;;11.96;56.38
46756;BME280;32506;52.826;-1.192;2023-04-20T09:12:05;101926.88;;;12.21;56.23
46756;BME280;32506;52.826;-1.192;2023-04-20T09:14:44;101924.63;;;12.46;55.85
46756;BME280;32506;52.826;-1.192;2023-04-20T09:17:10;101920.88;;;12.69;55.80
46756;BME280;32506;52.826;-1.192;2023-04-20T09:19:50;101912.63;;;12.92;55.32
46756;BME280;32506;52.826;-1.192;2023-04-20T09:22:16;101908.63;;;13.16;54.86
46756;BME280;32506;52.826;-1.192;2023-04-20T09:24:41;101904.88;;;13.39;54.90
46756;BME280;32506;52.826;-1.192;2023-04-20T09:27:17;101910.53;;;13.64;54.24
46756;BME280;32506;52.826;-1.192;2023-04-20T09:29:45;101902.53;;;13.84;53.94
46756;BME280;32506;52.826;-1.192;2023-04-20T09:32:22;101895.97;;;14.07;53.73
46756;BME280;32506;52.826;-1.192;2023-04-20T09:34:47;101903.06;;;14.28;53.32
46756;BME280;32506;52.826;-1.192;2023-04-20T09:37:16;101892.09;;;14.50;53.32
46756;BME280;32506;52.826;-1.192;2023-04-20T09:39:43;101885.72;;;14.71;52.93
46756;BME280;32506;52.826;-1.192;2023-04-20T09:42:11;101888.97;;;14.93;52.40
46756;BME280;32506;52.826;-1.192;2023-04-20T09:44:38;101884.19;;;15.15;51.96
46756;BME280;32506;52.826;-1.192;2023-04-20T09:47:05;101889.50;;;15.35;52.02
46756;BME280;32506;52.826;-1.192;2023-04-20T09:49:32;101880.31;;;15.56;51.65
46756;BME280;32506;52.826;-1.192;2023-04-20T09:52:01;101882.06;;;15.76;50.70
46756;BME280;32506;52.826;-1.192;2023-04-20T09:54:28;101880.09;;;15.97;50.32
46756;BME280;32506;52.826;-1.192;2023-04-20T09:56:53;101876.66;;;16.15;49.91
46756;BME280;32506;52.826;-1.192;2023-04-20T09:59:20;101867.81;;;16.33;49.35
46756;BME280;32506;52.826;-1.192;2023-04-20T10:01:46;101869.53;;;16.52;48.96
46756;BME280;32506;52.826;-1.192;2023-04-20T10:04:12;101870.38;;;16.71;48.96
46756;BME280;32506;52.826;-1.192;2023-04-20T10:06:39;101853.44;;;16.89;47.87
46756;BME280;32506;52.826;-1.192;2023-04-20T10:09:21;101853.41;;;17.08;48.11
46756;BME280;32506;52.826;-1.192;2023-04-20T10:11:47;101848.00;;;17.26;47.54
46756;BME280;32506;52.826;-1.192;2023-04-20T10:14:17;101846.56;;;17.42;47.11
46756;BME280;32506;52.826;-1.192;2023-04-20T10:16:44;101849.22;;;17.61;47.20
46756;BME280;32506;52.826;-1.192;2023-04-20T10:19:11;101850.22;;;17.78;46.81
46756;BME280;32506;52.826;-1.192;2023-04-20T10:21:48;101848.31;;;17.98;46.45
46756;BME280;32506;52.826;-1.192;2023-04-20T10:24:14;101836.81;;;18.14;46.50
46756;BME280;32506;52.826;-1.192;2023-04-20T10:26:44;101838.84;;;18.31;46.09
46756;BME280;32506;52.826;-1.192;2023-04-20T10:29:22;101830.63;;;18.49;45.87
46756;BME280;32506;52.826;-1.192;2023-04-20T10:31:49;101827.44;;;18.64;45.82
46756;BME280;32506;52.826;-1.192;2023-04-20T10:34:14;101821.16;;;18.75;35.78
46756;BME280;32506;52.826;-1.192;2023-04-20T10:36:40;101816.13;;;18.79;37.12
46756;BME280;32506;52.826;-1.192;2023-04-20T10:39:14;101810.47;;;18.81;37.12
46756;BME280;32506;52.826;-1.192;2023-04-20T10:41:54;101811.25;;;18.81;35.36
46756;BME280;32506;52.826;-1.192;2023-04-20T10:44:23;101812.69;;;18.84;33.47
46756;BME280;32506;52.826;-1.192;2023-04-20T10:46:49;101807.63;;;18.87;32.63
46756;BME280;32506;52.826;-1.192;2023-04-20T10:49:15;101806.91;;;18.92;34.53
46756;BME280;32506;52.826;-1.192;2023-04-20T10:51:52;101804.31;;;18.97;32.42
46756;BME280;32506;52.826;-1.192;2023-04-20T10:54:18;101812.81;;;19.01;33.66
46756;BME280;32506;52.826;-1.192;2023-04-20T10:56:51;101812.06;;;19.05;30.84
46756;BME280;32506;52.826;-1.192;2023-04-20T10:59:18;101807.81;;;19.09;31.85
46756;BME280;32506;52.826;-1.192;2023-04-20T11:01:44;101818.50;;;19.16;32.46
46756;BME280;32506;52.826;-1.192;2023-04-20T11:04:11;101816.41;;;19.18;30.61
46756;BME280;32506;52.826;-1.192;2023-04-20T11:06:42;101807.22;;;19.19;30.04
46756;BME280;32506;52.826;-1.192;2023-04-20T11:09:18;101808.13;;;19.25;32.38
46756;BME280;32506;52.826;-1.192;2023-04-20T11:11:44;101809.53;;;19.27;31.63
46756;BME280;32506;52.826;-1.192;2023-04-20T11:14:11;101791.72;;;19.32;30.29
46756;BME280;32506;52.826;-1.192;2023-04-20T11:16:38;101781.44;;;19.34;28.99
46756;BME280;32506;52.826;-1.192;2023-04-20T11:19:04;101785.56;;;19.36;30.00
46756;BME280;32506;52.826;-1.192;2023-04-20T11:21:40;101783.19;;;19.40;29.77
46756;BME280;32506;52.826;-1.192;2023-04-20T11:24:23;101772.13;;;19.41;29.12
46756;BME280;32506;52.826;-1.192;2023-04-20T11:26:49;101773.41;;;19.39;29.15
46756;BME280;32506;52.826;-1.192;2023-04-20T11:29:33;101773.75;;;19.42;30.09
46756;BME280;32506;52.826;-1.192;2023-04-20T11:32:09;101773.50;;;19.44;30.76
46756;BME280;32506;52.826;-1.192;2023-04-20T11:34:37;101763.03;;;19.48;28.92
46756;BME280;32506;52.826;-1.192;2023-04-20T11:37:07;101763.94;;;19.53;28.14
46756;BME280;32506;52.826;-1.192;2023-04-20T11:39:35;101740.94;;;19.56;28.28
46756;BME280;32506;52.826;-1.192;2023-04-20T11:42:01;101745.03;;;19.58;28.35
46756;BME280;32506;52.826;-1.192;2023-04-20T11:44:27;101742.88;;;19.60;28.80
46756;BME280;32506;52.826;-1.192;2023-04-20T11:46:53;101733.22;;;19.65;29.07
46756;BME280;32506;52.826;-1.192;2023-04-20T11:49:25;101730.31;;;19.71;28.23
46756;BME280;32506;52.826;-1.192;2023-04-20T11:51:51;101718.25;;;19.79;28.76
46756;BME280;32506;52.826;-1.192;2023-04-20T11:54:17;101726.00;;;19.87;26.98
46756;BME280;32506;52.826;-1.192;2023-04-20T11:56:46;101713.09;;;19.94;28.18
46756;BME280;32506;52.826;-1.192;2023-04-20T11:59:12;101702.88;;;20.02;26.98
46756;BME280;32506;52.826;-1.192;2023-04-20T12:01:39;101714.41;;;20.09;27.10
46756;BME280;32506;52.826;-1.192;2023-04-20T12:04:05;101705.50;;;20.14;26.61
46756;BME280;32506;52.826;-1.192;2023-04-20T12:06:31;101711.25;;;20.17;25.61
46756;BME280;32506;52.826;-1.192;2023-04-20T12:08:57;101701.81;;;20.20;26.50
46756;BME280;32506;52.826;-1.192;2023-04-20T12:11:23;101702.94;;;20.24;27.35
46756;BME280;32506;52.826;-1.192;2023-04-20T12:13:49;101700.28;;;20.29;27.74
46756;BME280;32506;52.826;-1.192;2023-04-20T12:16:15;101701.19;;;20.35;26.85
46756;BME280;32506;52.826;-1.192;2023-04-20T12:18:40;101704.25;;;20.43;27.25
46756;BME280;32506;52.826;-1.192;2023-04-20T12:21:06;101694.06;;;20.51;27.28
46756;BME280;32506;52.826;-1.192;2023-04-20T12:23:32;101697.66;;;20.56;27.27
46756;BME280;32506;52.826;-1.192;2023-04-20T12:25:57;101684.41;;;20.60;25.73
46756;BME280;32506;52.826;-1.192;2023-04-20T12:28:23;101692.56;;;20.65;25.04
46756;BME280;32506;52.826;-1.192;2023-04-20T12:30:49;101683.38;;;20.66;25.73
46756;BME280;32506;52.826;-1.192;2023-04-20T12:33:14;101685.59;;;20.69;24.35
46756;BME280;32506;52.826;-1.192;2023-04-20T12:35:40;101672.84;;;20.70;25.62
46756;BME280;32506;52.826;-1.192;2023-04-20T12:38:05;101670.69;;;20.72;26.64
46756;BME280;32506;52.826;-1.192;2023-04-20T12:40:31;101671.59;;;20.77;26.63
46756;BME280;32506;52.826;-1.192;2023-04-20T12:42:57;101660.19;;;20.81;25.97
46756;BME280;32506;52.826;-1.192;2023-04-20T12:45:22;101660.25;;;20.86;26.32
46756;BME280;32506;52.826;-1.192;2023-04-20T12:47:48;101661.38;;;20.90;24.56